createdAt,value
2023-05-12T00:00:03.622Z,13.7
2023-05-12T00:01:07.790Z,13.7
2023-05-12T00:02:14.109Z,13.7
2023-05-12T00:03:15.473Z,13.7
2023-05-12T00:04:22.787Z,13.7
2023-05-12T00:05:27.016Z,13.7
2023-05-12T00:06:28.146Z,13.7
2023-05-12T00:07:29.350Z,13.7
2023-05-12T00:08:33.352Z,13.7
2023-05-12T00:09:34.498Z,13.7
2023-05-12T00:10:35.785Z,13.7
2023-05-12T00:12:00.296Z,13.7
2023-05-12T00:13:06.527Z,13.7
2023-05-12T00:14:42.131Z,13.7
2023-05-12T00:15:43.416Z,13.7
2023-05-12T00:17:34.544Z,13.7
2023-05-12T00:18:44.685Z,13.7
2023-05-12T00:19:49.030Z,13.6
2023-05-12T00:21:01.879Z,13.6
2023-05-12T00:22:11.259Z,13.6
2023-05-12T00:23:39.285Z,13.6
2023-05-12T00:24:45.858Z,13.6
2023-05-12T00:26:01.587Z,13.6
2023-05-12T00:27:10.051Z,13.6
2023-05-12T00:28:11.288Z,13.6
2023-05-12T00:29:14.974Z,13.6
2023-05-12T00:30:26.700Z,13.6
2023-05-12T00:31:39.499Z,13.6
2023-05-12T00:32:43.763Z,13.6
2023-05-12T00:34:00.466Z,13.6
2023-05-12T00:35:19.218Z,13.6
2023-05-12T00:36:22.987Z,13.6
2023-05-12T00:37:26.981Z,13.6
2023-05-12T00:39:34.422Z,13.6
2023-05-12T00:40:35.735Z,13.5
2023-05-12T00:41:41.847Z,13.5
2023-05-12T00:42:43.033Z,13.5
2023-05-12T00:43:49.451Z,13.5
2023-05-12T00:44:53.282Z,13.5
2023-05-12T00:45:59.626Z,13.5
2023-05-12T00:47:00.903Z,13.5
2023-05-12T00:48:59.867Z,13.5
2023-05-12T00:50:11.355Z,13.5
2023-05-12T00:51:28.921Z,13.5
2023-05-12T00:52:30.140Z,13.5
2023-05-12T00:53:48.089Z,13.4
2023-05-12T00:54:51.609Z,13.5
2023-05-12T00:55:55.731Z,13.4
2023-05-12T00:56:59.727Z,13.4
2023-05-12T00:58:03.059Z,13.4
2023-05-12T00:59:04.343Z,13.4
2023-05-12T01:00:05.551Z,13.4
2023-05-12T01:01:09.668Z,13.4
2023-05-12T01:02:11.130Z,13.4
2023-05-12T01:03:12.483Z,13.4
2023-05-12T01:04:20.143Z,13.4
2023-05-12T01:05:21.374Z,13.4
2023-05-12T01:06:22.641Z,13.4
2023-05-12T01:07:23.933Z,13.4
2023-05-12T01:08:25.106Z,13.4
2023-05-12T01:09:35.176Z,13.4
2023-05-12T01:10:39.061Z,13.4
2023-05-12T01:11:42.630Z,13.3
2023-05-12T01:12:48.824Z,13.3
2023-05-12T01:13:54.935Z,13.3
2023-05-12T01:14:56.155Z,13.3
2023-05-12T01:16:04.564Z,13.3
2023-05-12T01:17:05.765Z,13.3
2023-05-12T01:18:09.291Z,13.3
2023-05-12T01:19:10.750Z,13.3
2023-05-12T01:20:14.557Z,13.3
2023-05-12T01:21:18.685Z,13.3
2023-05-12T01:22:22.908Z,13.3
2023-05-12T01:24:30.280Z,13.3
2023-05-12T01:25:42.643Z,13.3
2023-05-12T01:26:43.845Z,13.2
2023-05-12T01:27:45.028Z,13.2
2023-05-12T01:28:51.568Z,13.2
2023-05-12T01:29:55.489Z,13.2
2023-05-12T01:30:56.699Z,13.2
2023-05-12T01:31:58.036Z,13.2
2023-05-12T01:32:59.317Z,13.2
2023-05-12T01:34:23.345Z,13.2
2023-05-12T01:35:30.124Z,13.2
2023-05-12T01:36:40.213Z,13.2
2023-05-12T01:37:41.462Z,13.2
2023-05-12T01:38:42.668Z,13.1
2023-05-12T01:39:43.929Z,13.1
2023-05-12T01:40:45.100Z,13.1
2023-05-12T01:41:46.353Z,13.1
2023-05-12T01:42:50.083Z,13.1
2023-05-12T01:43:51.270Z,13.1
2023-05-12T01:44:54.919Z,13.1
2023-05-12T01:45:56.105Z,13.1
2023-05-12T01:46:57.463Z,13.1
2023-05-12T01:48:10.240Z,13
2023-05-12T01:49:11.514Z,13
2023-05-12T01:50:12.646Z,13
2023-05-12T01:51:13.945Z,13
2023-05-12T01:52:20.666Z,13
2023-05-12T01:53:36.017Z,13
2023-05-12T01:54:37.387Z,13
2023-05-12T01:55:38.554Z,13
2023-05-12T01:56:39.725Z,13
2023-05-12T01:57:40.893Z,12.9
2023-05-12T01:58:44.960Z,12.9
2023-05-12T01:59:48.735Z,12.9
2023-05-12T02:00:49.875Z,12.9
2023-05-12T02:01:53.897Z,12.9
2023-05-12T02:03:00.961Z,12.9
2023-05-12T02:04:10.763Z,12.9
2023-05-12T02:05:20.325Z,12.9
2023-05-12T02:06:31.857Z,12.9
2023-05-12T02:07:32.987Z,12.9
2023-05-12T02:08:36.930Z,12.9
2023-05-12T02:09:40.958Z,12.8
2023-05-12T02:10:44.447Z,12.8
2023-05-12T02:11:51.258Z,12.8
2023-05-12T02:12:52.448Z,12.8
2023-05-12T02:13:53.688Z,12.8
2023-05-12T02:14:58.009Z,12.8
2023-05-12T02:15:59.264Z,12.8
2023-05-12T02:17:00.595Z,12.8
2023-05-12T02:18:01.814Z,12.8
2023-05-12T02:19:03.051Z,12.8
2023-05-12T02:20:07.374Z,12.8
2023-05-12T02:21:08.524Z,12.8
2023-05-12T02:22:09.715Z,12.8
2023-05-12T02:23:13.823Z,12.7
2023-05-12T02:24:19.900Z,12.7
2023-05-12T02:25:23.237Z,12.7
2023-05-12T02:26:27.480Z,12.7
2023-05-12T02:27:28.653Z,12.7
2023-05-12T02:28:29.848Z,12.7
2023-05-12T02:29:31.077Z,12.7
2023-05-12T02:30:34.401Z,12.7
2023-05-12T02:31:42.885Z,12.7
2023-05-12T02:33:07.413Z,12.7
2023-05-12T02:34:15.680Z,12.7
2023-05-12T02:36:05.152Z,12.7
2023-05-12T02:37:09.283Z,12.7
2023-05-12T02:38:16.177Z,12.7
2023-05-12T02:39:19.680Z,12.7
2023-05-12T02:40:20.947Z,12.6
2023-05-12T02:41:25.278Z,12.6
2023-05-12T02:42:26.458Z,12.6
2023-05-12T02:43:27.627Z,12.6
2023-05-12T02:44:31.743Z,12.6
2023-05-12T02:45:35.695Z,12.6
2023-05-12T02:46:39.984Z,12.6
2023-05-12T02:47:41.182Z,12.6
2023-05-12T02:48:47.486Z,12.6
2023-05-12T02:49:48.649Z,12.6
2023-05-12T02:50:52.360Z,12.6
2023-05-12T02:51:55.827Z,12.6
2023-05-12T02:52:56.984Z,12.6
2023-05-12T02:53:58.148Z,12.6
2023-05-12T02:54:59.357Z,12.6
2023-05-12T02:56:00.582Z,12.6
2023-05-12T02:57:24.821Z,12.6
2023-05-12T02:58:25.972Z,12.6
2023-05-12T02:59:27.163Z,12.6
2023-05-12T03:00:28.436Z,12.6
2023-05-12T03:01:37.639Z,12.6
2023-05-12T03:02:38.990Z,12.6
2023-05-12T03:03:40.702Z,12.5
2023-05-12T03:04:45.640Z,12.5
2023-05-12T03:05:49.773Z,12.5
2023-05-12T03:07:05.108Z,12.5
2023-05-12T03:08:06.340Z,12.5
2023-05-12T03:09:07.563Z,12.5
2023-05-12T03:10:08.763Z,12.5
2023-05-12T03:11:17.494Z,12.5
2023-05-12T03:12:24.105Z,12.5
2023-05-12T03:13:25.401Z,12.5
2023-05-12T03:14:26.591Z,12.5
2023-05-12T03:15:27.867Z,12.5
2023-05-12T03:16:31.762Z,12.5
2023-05-12T03:17:35.887Z,12.5
2023-05-12T03:18:37.225Z,12.5
2023-05-12T03:19:38.504Z,12.4
2023-05-12T03:20:39.658Z,12.4
2023-05-12T03:21:40.898Z,12.4
2023-05-12T03:22:42.121Z,12.4
2023-05-12T03:23:43.514Z,12.4
2023-05-12T03:24:44.742Z,12.4
2023-05-12T03:25:55.921Z,12.4
2023-05-12T03:26:57.106Z,12.4
2023-05-12T03:28:04.306Z,12.4
2023-05-12T03:29:08.217Z,12.4
2023-05-12T03:30:09.429Z,12.4
2023-05-12T03:31:10.560Z,12.3
2023-05-12T03:32:14.322Z,12.3
2023-05-12T03:33:15.518Z,12.3
2023-05-12T03:34:16.657Z,12.3
2023-05-12T03:35:17.820Z,12.3
2023-05-12T03:36:18.991Z,12.3
2023-05-12T03:37:20.161Z,12.3
2023-05-12T03:38:21.332Z,12.3
2023-05-12T03:39:22.487Z,12.3
2023-05-12T03:40:23.729Z,12.3
2023-05-12T03:41:24.866Z,12.3
2023-05-12T03:42:26.039Z,12.3
2023-05-12T03:43:27.239Z,12.3
2023-05-12T03:44:28.433Z,12.3
2023-05-12T03:45:29.625Z,12.3
2023-05-12T03:46:30.843Z,12.3
2023-05-12T03:47:32.373Z,12.3
2023-05-12T03:48:33.722Z,12.2
2023-05-12T03:49:34.866Z,12.2
2023-05-12T03:50:36.032Z,12.2
2023-05-12T03:51:37.283Z,12.2
2023-05-12T03:52:38.510Z,12.2
2023-05-12T03:53:39.799Z,12.3
2023-05-12T03:54:40.955Z,12.3
2023-05-12T03:55:42.138Z,12.3
2023-05-12T03:56:43.279Z,12.3
2023-05-12T03:57:44.466Z,12.3
2023-05-12T03:58:45.745Z,12.3
2023-05-12T03:59:46.898Z,12.3
2023-05-12T04:00:48.081Z,12.3
2023-05-12T04:01:49.253Z,12.3
2023-05-12T04:02:50.544Z,12.3
2023-05-12T04:03:52.119Z,12.3
2023-05-12T04:04:53.500Z,12.3
2023-05-12T04:05:54.677Z,12.3
2023-05-12T04:06:55.866Z,12.4
2023-05-12T04:07:57.016Z,12.4
2023-05-12T04:08:58.205Z,12.4
2023-05-12T04:09:59.365Z,12.4
2023-05-12T04:11:00.584Z,12.3
2023-05-12T04:12:01.720Z,12.4
2023-05-12T04:13:03.482Z,12.4
2023-05-12T04:14:04.901Z,12.4
2023-05-12T04:15:06.054Z,12.4
2023-05-12T04:16:07.253Z,12.4
2023-05-12T04:17:08.492Z,12.4
2023-05-12T04:18:09.664Z,12.4
2023-05-12T04:19:10.897Z,12.4
2023-05-12T04:20:12.142Z,12.4
2023-05-12T04:21:13.321Z,12.4
2023-05-12T04:22:14.491Z,12.4
2023-05-12T04:23:15.707Z,12.4
2023-05-12T04:24:16.886Z,12.4
2023-05-12T04:25:18.045Z,12.4
2023-05-12T04:26:19.236Z,12.4
2023-05-12T04:27:20.381Z,12.4
2023-05-12T04:28:21.547Z,12.4
2023-05-12T04:29:22.827Z,12.4
2023-05-12T04:30:23.959Z,12.4
2023-05-12T04:31:25.141Z,12.4
2023-05-12T04:32:26.346Z,12.4
2023-05-12T04:33:27.548Z,12.4
2023-05-12T04:34:28.716Z,12.4
2023-05-12T04:35:29.875Z,12.4
2023-05-12T04:36:31.037Z,12.4
2023-05-12T04:37:32.207Z,12.4
2023-05-12T04:38:33.382Z,12.4
2023-05-12T04:39:34.540Z,12.5
2023-05-12T04:40:35.712Z,12.5
2023-05-12T04:41:36.895Z,12.5
2023-05-12T04:42:38.041Z,12.5
2023-05-12T04:44:49.343Z,12.5
2023-05-12T04:45:50.545Z,12.5
2023-05-12T04:46:51.714Z,12.5
2023-05-12T04:47:52.943Z,12.5
2023-05-12T04:48:54.213Z,12.5
2023-05-12T04:49:55.368Z,12.5
2023-05-12T04:50:56.536Z,12.5
2023-05-12T04:51:57.712Z,12.6
2023-05-12T04:52:58.870Z,12.6
2023-05-12T04:54:00.050Z,12.6
2023-05-12T04:55:01.206Z,12.6
2023-05-12T04:56:02.379Z,12.6
2023-05-12T04:57:03.561Z,12.6
2023-05-12T04:58:04.706Z,12.6
2023-05-12T04:59:05.882Z,12.6
2023-05-12T05:00:07.038Z,12.6
2023-05-12T05:01:08.246Z,12.7
2023-05-12T05:02:09.429Z,12.7
2023-05-12T05:03:10.629Z,12.7
2023-05-12T05:04:12.507Z,12.7
2023-05-12T05:05:13.660Z,12.7
2023-05-12T05:06:14.819Z,12.8
2023-05-12T05:07:15.986Z,12.7
2023-05-12T05:08:17.159Z,12.8
2023-05-12T05:09:18.329Z,12.8
2023-05-12T05:10:19.490Z,12.8
2023-05-12T05:11:20.656Z,12.8
2023-05-12T05:12:21.907Z,12.8
2023-05-12T05:13:23.074Z,12.9
2023-05-12T05:14:24.216Z,12.9
2023-05-12T05:15:25.382Z,12.9
2023-05-12T05:16:26.675Z,12.9
2023-05-12T05:17:28.040Z,12.9
2023-05-12T05:18:29.295Z,13
2023-05-12T05:20:59.298Z,13
2023-05-12T05:22:00.840Z,13
2023-05-12T05:23:02.004Z,13
2023-05-12T05:24:03.195Z,13.1
2023-05-12T05:25:04.338Z,13.1
2023-05-12T05:26:05.509Z,13.1
2023-05-12T05:27:06.673Z,13.1
2023-05-12T05:28:07.915Z,13.2
2023-05-12T05:29:09.063Z,13.2
2023-05-12T05:30:10.205Z,13.2
2023-05-12T05:31:11.439Z,13.2
2023-05-12T05:32:12.631Z,13.2
2023-05-12T05:33:13.792Z,13.3
2023-05-12T05:34:15.016Z,13.3
2023-05-12T05:35:16.223Z,13.3
2023-05-12T05:36:17.401Z,13.3
2023-05-12T05:37:18.587Z,13.4
2023-05-12T05:38:19.734Z,13.4
2023-05-12T05:39:20.909Z,13.4
2023-05-12T05:40:22.073Z,13.4
2023-05-12T05:41:23.240Z,13.5
2023-05-12T05:42:24.453Z,13.5
2023-05-12T05:43:25.649Z,13.5
2023-05-12T05:44:26.800Z,13.5
2023-05-12T05:45:28.222Z,13.6
2023-05-12T05:46:29.526Z,13.6
2023-05-12T05:47:30.754Z,13.6
2023-05-12T05:48:31.979Z,13.6
2023-05-12T05:49:33.156Z,13.6
2023-05-12T05:50:34.311Z,13.7
2023-05-12T05:51:35.477Z,13.7
2023-05-12T05:52:36.643Z,13.7
2023-05-12T05:53:37.808Z,13.7
2023-05-12T05:54:39.002Z,13.8
2023-05-12T05:55:40.242Z,13.8
2023-05-12T05:56:41.426Z,13.8
2023-05-12T05:57:42.577Z,13.8
2023-05-12T05:58:43.827Z,13.9
2023-05-12T05:59:44.981Z,13.9
2023-05-12T06:00:46.132Z,13.9
2023-05-12T06:01:47.427Z,13.9
2023-05-12T06:02:48.815Z,14
2023-05-12T06:03:50.525Z,14
2023-05-12T06:04:52.249Z,14
2023-05-12T06:05:53.400Z,14.1
2023-05-12T06:06:54.574Z,14.1
2023-05-12T06:07:55.732Z,14.1
2023-05-12T06:08:56.895Z,14.1
2023-05-12T06:09:58.079Z,14.2
2023-05-12T06:10:59.232Z,14.2
2023-05-12T06:12:00.401Z,14.3
2023-05-12T06:13:01.561Z,14.3
2023-05-12T06:14:02.758Z,14.3
2023-05-12T06:15:03.920Z,14.3
2023-05-12T06:16:05.081Z,14.3
2023-05-12T06:17:06.270Z,14.4
2023-05-12T06:18:07.559Z,14.4
2023-05-12T06:19:08.971Z,14.5
2023-05-12T06:20:10.245Z,14.5
2023-05-12T06:21:11.397Z,14.5
2023-05-12T06:22:12.575Z,14.6
2023-05-12T06:23:13.752Z,14.6
2023-05-12T06:24:14.931Z,14.6
2023-05-12T06:25:16.105Z,14.7
2023-05-12T06:26:17.265Z,14.7
2023-05-12T06:27:18.430Z,14.8
2023-05-12T06:28:19.594Z,14.8
2023-05-12T06:29:20.789Z,14.9
2023-05-12T06:30:21.948Z,14.9
2023-05-12T06:31:23.122Z,14.9
2023-05-12T06:32:24.399Z,15
2023-05-12T06:33:25.696Z,15
2023-05-12T06:34:26.834Z,15.1
2023-05-12T06:35:28.017Z,15.2
2023-05-12T06:36:29.204Z,15.2
2023-05-12T06:37:30.337Z,15.3
2023-05-12T06:38:31.509Z,15.3
2023-05-12T06:39:32.664Z,15.4
2023-05-12T06:40:33.836Z,15.4
2023-05-12T06:41:35.004Z,15.5
2023-05-12T06:42:36.170Z,15.5
2023-05-12T06:43:37.335Z,15.6
2023-05-12T06:44:40.646Z,15.7
2023-05-12T06:45:43.472Z,15.7
2023-05-12T06:46:44.658Z,15.8
2023-05-12T06:47:46.220Z,15.9
2023-05-12T06:48:47.395Z,15.9
2023-05-12T06:49:49.407Z,16
2023-05-12T06:51:14.811Z,16.1
2023-05-12T06:53:54.607Z,16.3
2023-05-12T06:55:01.717Z,16.3
2023-05-12T06:56:48.671Z,16.4
2023-05-12T06:57:52.543Z,16.6
2023-05-12T06:59:14.755Z,16.6
2023-05-12T07:40:20.621Z,20.5
2023-05-12T07:41:34.628Z,20.7
2023-05-12T07:43:33.675Z,21.4
2023-05-12T08:23:11.331Z,27.2
2023-05-12T08:24:12.554Z,27.3
2023-05-12T08:25:13.728Z,27.3
2023-05-12T08:26:14.950Z,27.6
2023-05-12T08:27:16.088Z,27.4
2023-05-12T08:28:17.258Z,27.4
2023-05-12T08:29:18.426Z,27.5
2023-05-12T08:30:19.591Z,27.5
2023-05-12T08:31:20.870Z,27.5
2023-05-12T08:32:22.290Z,27.5
2023-05-12T08:33:23.532Z,27.6
2023-05-12T08:34:25.042Z,27.6
2023-05-12T08:35:26.199Z,27.7
2023-05-12T08:36:27.414Z,27.7
2023-05-12T08:37:28.553Z,27.9
2023-05-12T08:38:29.838Z,28
2023-05-12T08:39:31.001Z,27.9
2023-05-12T08:40:32.168Z,27.9
2023-05-12T08:41:33.345Z,28
2023-05-12T08:42:34.503Z,28.1
2023-05-12T08:43:35.671Z,28.1
2023-05-12T08:44:36.831Z,28.3
2023-05-12T08:45:43.921Z,28.4
2023-05-12T08:48:41.284Z,28.7
2023-05-12T09:43:53.639Z,34.9
2023-05-12T09:46:24.848Z,35.2
2023-05-12T09:47:26.207Z,35.3
2023-05-12T09:48:27.623Z,35.4
2023-05-12T09:49:28.887Z,35.5
2023-05-12T09:50:34.973Z,35.6
2023-05-12T09:51:49.246Z,35.7
2023-05-12T09:52:50.408Z,35.8
2023-05-12T09:53:51.570Z,35.9
2023-05-12T09:54:52.771Z,35.9
2023-05-12T09:55:53.906Z,36
2023-05-12T09:56:55.076Z,36.1
2023-05-12T09:57:56.264Z,36.2
2023-05-12T09:58:57.484Z,36.3
2023-05-12T09:59:59.322Z,36.4
2023-05-12T10:01:18.188Z,36.5
2023-05-12T10:02:25.083Z,36.6
2023-05-12T10:03:26.583Z,36.6
2023-05-12T10:04:27.762Z,36.7
2023-05-12T10:05:28.960Z,36.8
2023-05-12T10:06:30.111Z,36.9
2023-05-12T10:07:31.307Z,37
2023-05-12T10:08:32.462Z,37.1
2023-05-12T10:09:33.617Z,37.1
2023-05-12T10:10:35.015Z,37.2
2023-05-12T10:11:43.368Z,37.3
2023-05-12T10:12:44.499Z,37.3
2023-05-12T10:13:45.663Z,37.5
2023-05-12T10:14:46.889Z,37.1
2023-05-12T10:15:48.107Z,36.8
2023-05-12T10:16:49.279Z,36.5
2023-05-12T10:17:53.985Z,36.2
2023-05-12T10:18:55.376Z,35.9
2023-05-12T10:19:56.713Z,36.1
2023-05-12T10:20:57.860Z,36.3
2023-05-12T10:21:59.259Z,36.4
2023-05-12T10:23:00.389Z,36.5
2023-05-12T10:24:04.354Z,36.6
2023-05-12T10:25:05.497Z,36.6
2023-05-12T10:26:06.692Z,36.7
2023-05-12T10:27:07.839Z,36.7
2023-05-12T10:28:09.026Z,36.8
2023-05-12T10:29:10.211Z,36.8
2023-05-12T10:30:11.435Z,36.9
2023-05-12T10:31:12.700Z,37
2023-05-12T10:32:13.862Z,37
2023-05-12T10:33:15.036Z,37.1
2023-05-12T10:34:16.196Z,37.1
2023-05-12T10:35:17.685Z,37.2
2023-05-12T10:36:19.370Z,37.3
2023-05-12T10:37:20.527Z,37.3
2023-05-12T10:38:21.690Z,37.4
2023-05-12T10:39:22.860Z,37.4
2023-05-12T10:40:24.027Z,37.5
2023-05-12T10:41:25.504Z,37.6
2023-05-12T10:42:26.644Z,37.6
2023-05-12T10:43:27.793Z,37.7
2023-05-12T10:44:28.971Z,37.7
2023-05-12T10:45:30.164Z,37.8
2023-05-12T10:46:31.421Z,37.9
2023-05-12T10:47:32.711Z,37.9
2023-05-12T10:48:33.858Z,38
2023-05-12T10:49:35.037Z,38.1
2023-05-12T10:50:36.194Z,38.2
2023-05-12T10:51:37.377Z,38.2
2023-05-12T10:52:38.555Z,38.3
2023-05-12T10:53:48.989Z,38.4
2023-05-12T10:54:55.541Z,38.5
2023-05-12T10:55:56.815Z,38.5
2023-05-12T10:56:59.077Z,38.6
2023-05-12T10:58:01.930Z,38.7
2023-05-12T10:59:04.007Z,38.7
2023-05-12T11:00:06.109Z,38.8
2023-05-12T11:01:09.388Z,38.9
2023-05-12T11:02:14.594Z,38.9
2023-05-12T11:03:18.763Z,39
2023-05-12T11:04:23.915Z,39.1
2023-05-12T11:05:26.295Z,39.1
2023-05-12T11:06:30.873Z,39.2
2023-05-12T11:07:35.214Z,39.3
2023-05-12T11:08:39.779Z,39.3
2023-05-12T11:09:53.539Z,39.4
2023-05-12T11:11:03.290Z,39.4
2023-05-12T11:12:04.919Z,39
2023-05-12T11:13:08.673Z,39.3
2023-05-12T11:14:15.267Z,39.4
2023-05-12T11:15:25.511Z,39.5
2023-05-12T11:16:26.773Z,39.5
2023-05-12T11:17:28.155Z,39.6
2023-05-12T11:18:29.719Z,39.6
2023-05-12T11:19:31.190Z,39.7
2023-05-12T11:20:32.323Z,39.6
2023-05-12T11:21:33.505Z,39.6
2023-05-12T11:22:34.674Z,39.4
2023-05-12T11:23:35.834Z,39.3
2023-05-12T11:24:37.000Z,39.1
2023-05-12T11:25:38.180Z,39
2023-05-12T11:26:39.427Z,38.9
2023-05-12T11:27:40.603Z,38.7
2023-05-12T11:28:41.784Z,38.6
2023-05-12T11:29:43.131Z,38.3
2023-05-12T11:30:44.304Z,37.7
2023-05-12T11:31:45.536Z,37.1
2023-05-12T11:32:47.229Z,36.8
2023-05-12T11:33:51.824Z,36.9
2023-05-12T11:35:13.529Z,36.8
2023-05-12T11:36:18.432Z,36.7
2023-05-12T11:37:22.345Z,36.7
2023-05-12T11:38:23.520Z,36.6
2023-05-12T11:39:24.679Z,36.5
2023-05-12T11:40:25.848Z,36.5
2023-05-12T11:41:27.004Z,36.5
2023-05-12T11:42:28.218Z,36.4
2023-05-12T11:43:29.393Z,36.4
2023-05-12T11:44:33.388Z,36.4
2023-05-12T11:45:34.596Z,36.3
2023-05-12T11:46:35.755Z,36.3
2023-05-12T11:47:37.010Z,36.3
2023-05-12T11:48:38.649Z,36.3
2023-05-12T11:49:39.804Z,36.2
2023-05-12T11:50:40.963Z,36.2
2023-05-12T11:51:42.249Z,36.2
2023-05-12T11:52:43.397Z,36.1
2023-05-12T11:53:44.573Z,36.1
2023-05-12T11:54:45.728Z,36.1
2023-05-12T11:55:46.913Z,36.1
2023-05-12T11:56:48.081Z,36.1
2023-05-12T11:57:49.247Z,36.1
2023-05-12T11:58:50.426Z,36.1
2023-05-12T11:59:51.580Z,36.2
2023-05-12T12:00:55.875Z,36.1
2023-05-12T12:01:57.005Z,36.1
2023-05-12T12:02:58.376Z,36.1
2023-05-12T12:04:03.117Z,36.1
2023-05-12T12:05:05.422Z,36.1
2023-05-12T12:06:10.088Z,36.1
2023-05-12T12:07:11.235Z,36.1
2023-05-12T12:08:17.846Z,36
2023-05-12T12:10:50.104Z,36
2023-05-12T12:11:51.246Z,36
2023-05-12T12:12:52.414Z,36
2023-05-12T12:13:53.582Z,36
2023-05-12T12:14:54.772Z,35.8
2023-05-12T12:15:55.920Z,35.3
2023-05-12T12:16:57.150Z,35
2023-05-12T12:17:58.346Z,34.7
2023-05-12T12:18:59.715Z,34.3
2023-05-12T12:20:01.029Z,34
2023-05-12T12:21:02.167Z,33.8
2023-05-12T12:22:03.333Z,33.7
2023-05-12T12:23:04.511Z,34
2023-05-12T12:24:05.698Z,33.9
2023-05-12T12:25:06.850Z,34
2023-05-12T12:26:08.012Z,34
2023-05-12T12:27:09.181Z,34
2023-05-12T12:28:10.347Z,34
2023-05-12T12:29:11.624Z,34
2023-05-12T12:30:12.761Z,34
2023-05-12T12:31:13.940Z,34
2023-05-12T12:32:15.181Z,34
2023-05-12T12:33:26.770Z,34.1
2023-05-12T12:34:45.364Z,34.1
2023-05-12T12:35:46.629Z,34.1
2023-05-12T12:36:47.801Z,34.1
2023-05-12T12:37:48.962Z,34.1
2023-05-12T12:38:50.131Z,34.1
2023-05-12T12:39:54.004Z,34.1
2023-05-12T12:40:55.248Z,34.1
2023-05-12T12:41:56.478Z,34.2
2023-05-12T12:42:57.633Z,34.2
2023-05-12T12:44:01.577Z,33.7
2023-05-12T12:45:02.725Z,33.3
2023-05-12T12:46:04.160Z,33
2023-05-12T12:47:05.370Z,32.9
2023-05-12T12:48:06.689Z,32.9
2023-05-12T12:49:08.000Z,33.1
2023-05-12T12:50:09.265Z,33.1
2023-05-12T12:51:13.768Z,33.1
2023-05-12T12:52:19.932Z,33.1
2023-05-12T12:53:23.882Z,33.2
2023-05-12T12:54:25.045Z,33.2
2023-05-12T12:56:37.625Z,33.1
2023-05-12T12:57:40.883Z,33.1
2023-05-12T12:58:42.115Z,33.2
2023-05-12T12:59:53.886Z,33.2
2023-05-12T13:01:23.403Z,33.1
2023-05-12T13:02:24.711Z,33.1
2023-05-12T13:03:30.911Z,33.1
2023-05-12T13:04:37.029Z,33.1
2023-05-12T13:05:38.295Z,33.2
2023-05-12T13:06:39.505Z,33.2
2023-05-12T13:07:43.478Z,33.2
2023-05-12T13:08:50.464Z,33.2
2023-05-12T13:09:54.396Z,33.2
2023-05-12T13:11:01.757Z,33.2
2023-05-12T13:12:12.580Z,33.2
2023-05-12T13:14:31.978Z,33.2
2023-05-12T13:21:01.438Z,33.1
2023-05-12T14:05:32.953Z,30.7
2023-05-12T14:06:51.992Z,30.6
2023-05-12T14:08:00.268Z,30.3
2023-05-12T14:09:46.777Z,30.4
2023-05-12T14:10:52.855Z,30.3
2023-05-12T14:12:17.877Z,30.3
2023-05-12T14:13:31.278Z,30.3
2023-05-12T14:14:53.035Z,30.2
2023-05-12T14:16:24.477Z,30.1
2023-05-12T14:18:43.631Z,30
2023-05-12T14:20:38.641Z,29.9
2023-05-12T14:21:53.650Z,29.7
2023-05-12T14:23:00.646Z,29.7
2023-05-12T14:58:13.386Z,27.9
2023-05-12T15:00:21.404Z,27.9
2023-05-12T15:01:34.051Z,27.8
2023-05-12T15:02:35.490Z,27.8
2023-05-12T15:06:04.393Z,27.7
2023-05-12T15:07:16.295Z,27.6
2023-05-12T15:08:27.866Z,27.6
2023-05-12T15:09:31.818Z,27.6
2023-05-12T15:10:39.092Z,27.5
2023-05-12T15:11:45.136Z,27.5
2023-05-12T15:12:46.453Z,27.4
2023-05-12T15:13:50.892Z,27.4
2023-05-12T15:14:59.595Z,27.4
2023-05-12T15:17:15.218Z,27.3
2023-05-12T15:18:16.794Z,27.3
2023-05-12T15:19:29.885Z,27.2
2023-05-12T15:20:36.428Z,27.2
2023-05-12T15:22:55.053Z,27.1
2023-05-12T15:24:02.046Z,27.1
2023-05-12T15:25:06.148Z,27.1
2023-05-12T15:27:55.868Z,27
2023-05-12T15:29:09.748Z,27
2023-05-12T15:30:19.734Z,26.9
2023-05-12T15:31:25.839Z,26.9
2023-05-12T15:32:27.041Z,26.7
2023-05-12T15:33:32.226Z,26.5
2023-05-12T15:34:38.077Z,26.4
2023-05-12T15:35:51.309Z,26.2
2023-05-12T15:37:07.614Z,26.1
2023-05-12T15:38:52.120Z,25.9
2023-05-12T15:39:56.405Z,25.8
2023-05-12T15:41:09.645Z,25.8
2023-05-12T15:43:41.473Z,25.8
2023-05-12T15:44:52.447Z,25.8
2023-05-12T15:45:53.764Z,25.8
2023-05-12T15:48:07.230Z,25.8
2023-05-12T15:49:12.749Z,25.8
2023-05-12T15:50:18.567Z,25.8
2023-05-12T15:52:31.492Z,25.8
2023-05-12T15:53:40.154Z,25.8
2023-05-12T15:54:58.414Z,25.8
2023-05-12T15:56:02.713Z,25.8
2023-05-12T15:57:10.272Z,25.8
2023-05-12T15:58:26.496Z,25.7
2023-05-12T15:59:39.644Z,25.7
2023-05-12T16:00:40.896Z,25.7
2023-05-12T16:01:52.652Z,25.7
2023-05-12T16:02:56.749Z,25.6
2023-05-12T16:03:58.312Z,25.6
2023-05-12T16:05:08.798Z,25.6
2023-05-12T16:07:35.433Z,25.4
2023-05-12T16:08:44.179Z,25.2
2023-05-12T16:11:01.353Z,25
2023-05-12T16:12:02.584Z,24.8
2023-05-12T16:13:11.066Z,24.7
2023-05-12T16:14:12.267Z,24.7
2023-05-12T16:15:25.153Z,24.6
2023-05-12T16:16:31.319Z,24.5
2023-05-12T16:17:32.669Z,24.5
2023-05-12T16:18:55.105Z,24.4
2023-05-12T16:19:56.417Z,24.3
2023-05-12T16:20:57.612Z,24.3
2023-05-12T16:22:01.033Z,24.3
2023-05-12T16:23:02.294Z,24.3
2023-05-12T16:24:13.441Z,24.3
2023-05-12T16:25:14.620Z,24.3
2023-05-12T16:26:21.986Z,24.3
2023-05-12T16:27:30.774Z,24.3
2023-05-12T16:28:31.976Z,24.3
2023-05-12T16:29:33.204Z,24.3
2023-05-12T16:30:46.858Z,24.3
2023-05-12T16:31:53.533Z,24.3
2023-05-12T16:32:57.761Z,24.3
2023-05-12T16:34:01.100Z,24.3
2023-05-12T16:35:02.335Z,24.3
2023-05-12T16:36:10.637Z,24.3
2023-05-12T16:37:17.593Z,24.3
2023-05-12T16:38:24.335Z,24.2
2023-05-12T16:39:25.521Z,24.2
2023-05-12T16:40:26.692Z,24.2
2023-05-12T16:41:28.748Z,24.2
2023-05-12T16:42:35.589Z,24.2
2023-05-12T16:44:42.974Z,24.2
2023-05-12T16:45:44.323Z,24.2
2023-05-12T16:46:50.465Z,24.2
2023-05-12T16:47:51.831Z,24.2
2023-05-12T16:48:56.245Z,24.3
2023-05-12T16:49:57.424Z,24.3
2023-05-12T16:51:08.738Z,24.3
2023-05-12T16:52:11.476Z,24.3
2023-05-12T16:53:19.205Z,24.3
2023-05-12T16:54:23.505Z,24.3
2023-05-12T16:55:27.552Z,24.3
2023-05-12T16:56:36.183Z,24.3
2023-05-12T16:57:44.350Z,24.3
2023-05-12T16:58:49.203Z,24.4
2023-05-12T16:59:53.391Z,24.4
2023-05-12T17:00:57.154Z,24.4
2023-05-12T17:02:43.657Z,24.4
2023-05-12T17:03:52.747Z,24.4
2023-05-12T17:04:54.341Z,24.4
2023-05-12T17:05:55.478Z,24.4
2023-05-12T17:06:56.729Z,24.4
2023-05-12T17:08:00.612Z,24.4
2023-05-12T17:09:01.843Z,24.4
2023-05-12T17:10:03.015Z,24.4
2023-05-12T17:11:06.348Z,24.4
2023-05-12T17:12:07.519Z,24.4
2023-05-12T17:13:08.703Z,24.4
2023-05-12T17:14:09.899Z,24.4
2023-05-12T17:15:11.084Z,24.4
2023-05-12T17:16:14.991Z,24.4
2023-05-12T17:17:16.232Z,24.4
2023-05-12T17:18:20.243Z,24.4
2023-05-12T17:19:21.556Z,24.4
2023-05-12T17:20:25.843Z,24.4
2023-05-12T17:21:27.033Z,24.3
2023-05-12T17:22:33.359Z,24.3
2023-05-12T17:23:34.544Z,24.3
2023-05-12T17:24:35.935Z,24.3
2023-05-12T17:25:37.139Z,24.3
2023-05-12T17:26:41.298Z,24.3
2023-05-12T17:27:42.489Z,24.3
2023-05-12T17:28:46.659Z,24.2
2023-05-12T17:29:47.838Z,24.2
2023-05-12T17:30:49.025Z,24.2
2023-05-12T17:31:53.101Z,24.2
2023-05-12T17:33:00.252Z,24.1
2023-05-12T17:34:01.625Z,24.1
2023-05-12T17:35:02.889Z,24.1
2023-05-12T17:36:12.112Z,24.1
2023-05-12T17:37:16.354Z,24.1
2023-05-12T17:38:19.770Z,24.1
2023-05-12T17:39:24.202Z,24
2023-05-12T17:41:36.415Z,24
2023-05-12T17:42:42.730Z,23.9
2023-05-12T17:46:04.681Z,23.9
2023-05-12T17:48:27.333Z,23.8
2023-05-12T17:50:02.373Z,23.8
2023-05-12T18:29:41.089Z,22.6
2023-05-12T18:30:48.764Z,22.6
2023-05-12T18:31:53.697Z,22.5
2023-05-12T18:33:00.713Z,22.5
2023-05-12T18:34:04.584Z,22.4
2023-05-12T18:35:11.064Z,22.4
2023-05-12T18:36:12.250Z,22.3
2023-05-12T18:37:22.539Z,22.3
2023-05-12T18:38:26.638Z,22.3
2023-05-12T18:39:29.205Z,22.2
2023-05-12T18:40:38.236Z,22.2
2023-05-12T18:41:39.422Z,22.1
2023-05-12T18:43:04.335Z,22.1
2023-05-12T18:44:05.481Z,22
2023-05-12T18:45:09.989Z,22
2023-05-12T18:46:15.996Z,21.9
2023-05-12T18:47:17.216Z,21.9
2023-05-12T18:48:21.249Z,21.9
2023-05-12T18:49:42.692Z,21.8
2023-05-12T18:50:46.635Z,21.8
2023-05-12T18:52:29.920Z,21.7
2023-05-12T18:53:36.012Z,21.6
2023-05-12T18:54:45.484Z,21.6
2023-05-12T18:55:53.187Z,21.6
2023-05-12T18:56:57.039Z,21.5
2023-05-12T18:57:58.216Z,21.5
2023-05-12T18:59:01.584Z,21.4
2023-05-12T19:00:05.712Z,21.4
2023-05-12T19:01:06.963Z,21.3
2023-05-12T19:02:08.469Z,21.3
2023-05-12T19:03:19.577Z,21.3
2023-05-12T19:04:28.508Z,21.2
2023-05-12T19:05:29.692Z,21.2
2023-05-12T19:06:30.955Z,21.1
2023-05-12T19:07:34.929Z,21.1
2023-05-12T19:10:48.097Z,21